Kempton, North Dakota
Current Conditions -  °F | °C
As of 7:58 PM on Friday 24 Oct 2014 (Local Time) from KRDR Reporting Station
Clear Clear  
Wind Chill: 56°   Ceiling: Unl
Heat Index: 56°   Visibility: 10mi
Dew Point: 33°   Wind: 8mph
Humidity: 42%   Direction: 270°W
Pressure: 29.84"   Gusts: NA
Location:  47.7445°N, 97.5815°W
Report Text: KRDR 250058Z AUTO 27007KT 10SM CLR 14/01 A2984 RMK AO2 SLP114 T01360007
Loading
Personal Weather Stations






























Interactive Weather Map
Tropical Storm Tracking
New forecast layout! Learn more

10-Day Weather Forecast

Advertisements
Track Severe Weather on mobile